createdAt,value
2016-04-17T00:00:29.927Z,26.92
2016-04-17T00:01:29.945Z,26.92
2016-04-17T00:02:29.979Z,26.92
2016-04-17T00:03:29.998Z,26.92
2016-04-17T00:04:30.032Z,27.11
2016-04-17T00:05:30.082Z,27.11
2016-04-17T00:06:30.084Z,27.11
2016-04-17T00:07:30.149Z,27.11
2016-04-17T00:08:30.136Z,27.11
2016-04-17T00:09:30.202Z,26.82
2016-04-17T00:10:30.188Z,27.11
2016-04-17T00:11:30.223Z,26.63
2016-04-17T00:12:30.241Z,26.82
2016-04-17T00:13:30.290Z,27.11
2016-04-17T00:14:30.323Z,27.11
2016-04-17T00:15:30.326Z,26.82
2016-04-17T00:16:30.361Z,27.11
2016-04-17T00:17:30.395Z,27.11
2016-04-17T00:18:30.428Z,27.11
2016-04-17T00:19:30.447Z,27.11
2016-04-17T00:20:30.480Z,26.92
2016-04-17T00:21:30.500Z,27.11
2016-04-17T00:22:30.549Z,26.82
2016-04-17T00:23:30.552Z,26.92
2016-04-17T00:24:30.601Z,26.63
2016-04-17T00:25:30.603Z,26.92
2016-04-17T00:26:30.638Z,26.82
2016-04-17T00:27:30.702Z,26.92
2016-04-17T00:28:30.690Z,26.82
2016-04-17T00:29:30.707Z,27.11
2016-04-17T00:30:30.741Z,27.11
2016-04-17T00:31:30.776Z,27.11
2016-04-17T00:32:30.810Z,26.82
2016-04-17T00:33:30.843Z,27.11
2016-04-17T00:34:30.846Z,26.92
2016-04-17T00:35:30.880Z,27.11
2016-04-17T00:36:30.915Z,26.82
2016-04-17T00:37:30.980Z,27.11
2016-04-17T00:38:31.045Z,27.11
2016-04-17T00:39:31.282Z,26.92
2016-04-17T00:40:31.034Z,26.92
2016-04-17T00:41:31.053Z,26.92
2016-04-17T00:42:31.087Z,27.11
2016-04-17T00:43:31.106Z,26.92
2016-04-17T00:44:31.139Z,26.92
2016-04-17T00:45:31.157Z,26.82
2016-04-17T00:46:31.206Z,26.92
2016-04-17T00:47:31.241Z,27.11
2016-04-17T00:48:31.259Z,26.92
2016-04-17T00:49:31.278Z,26.92
2016-04-17T00:50:31.296Z,26.92
2016-04-17T00:51:31.345Z,26.73
2016-04-17T00:52:31.348Z,27.11
2016-04-17T00:53:31.383Z,27.11
2016-04-17T00:54:31.479Z,26.82
2016-04-17T00:55:31.450Z,26.82
2016-04-17T00:56:31.469Z,27.11
2016-04-17T00:57:31.518Z,26.82
2016-04-17T00:58:31.536Z,27.11
2016-04-17T00:59:31.554Z,27.11
2016-04-17T01:00:31.573Z,27.11
2016-04-17T01:01:31.607Z,26.82
2016-04-17T01:02:31.641Z,27.11
2016-04-17T01:03:31.659Z,27.11
2016-04-17T01:04:31.724Z,26.63
2016-04-17T01:05:31.711Z,27.11
2016-04-17T01:06:31.746Z,26.82
2016-04-17T01:07:31.763Z,27.11
2016-04-17T01:08:31.798Z,26.82
2016-04-17T01:09:31.846Z,27.11
2016-04-17T01:10:31.849Z,26.82
2016-04-17T01:11:31.884Z,26.63
2016-04-17T01:12:31.918Z,26.92
2016-04-17T01:13:31.937Z,27.11
2016-04-17T01:14:31.985Z,26.92
2016-04-17T01:15:32.003Z,27.11
2016-04-17T01:16:32.053Z,27.11
2016-04-17T01:17:32.040Z,26.92
2016-04-17T01:18:32.075Z,27.11
2016-04-17T01:19:32.093Z,27.11
2016-04-17T01:20:32.126Z,27.11
2016-04-17T01:21:32.145Z,26.82
2016-04-17T01:22:32.194Z,26.82
2016-04-17T01:23:32.228Z,27.11
2016-04-17T01:24:32.481Z,27.11
2016-04-17T01:25:32.281Z,26.63
2016-04-17T01:26:32.299Z,26.92
2016-04-17T01:27:32.333Z,26.63
2016-04-17T01:28:32.366Z,26.82
2016-04-17T01:29:32.385Z,27.11
2016-04-17T01:30:32.403Z,26.82
2016-04-17T01:31:32.438Z,26.82
2016-04-17T01:32:32.455Z,26.82
2016-04-17T01:33:32.505Z,26.63
2016-04-17T01:34:32.523Z,27.11
2016-04-17T01:35:32.542Z,26.63
2016-04-17T01:36:32.576Z,26.63
2016-04-17T01:37:32.610Z,26.82
2016-04-17T01:38:32.628Z,26.82
2016-04-17T01:39:32.552Z,26.63
2016-04-17T01:40:32.695Z,26.63
2016-04-17T01:41:32.715Z,27.11
2016-04-17T01:42:32.732Z,26.82
2016-04-17T01:43:32.767Z,26.63
2016-04-17T01:44:32.800Z,26.82
2016-04-17T01:45:32.818Z,26.82
2016-04-17T01:46:32.837Z,26.82
2016-04-17T01:47:32.871Z,27.11
2016-04-17T01:48:32.920Z,26.63
2016-04-17T01:49:32.939Z,26.92
2016-04-17T01:50:33.003Z,26.82
2016-04-17T01:51:33.022Z,26.82
2016-04-17T01:52:33.025Z,26.82
2016-04-17T01:53:33.044Z,26.73
2016-04-17T01:54:33.093Z,26.82
2016-04-17T01:55:33.095Z,26.63
2016-04-17T01:56:33.130Z,26.73
2016-04-17T01:57:33.163Z,26.82
2016-04-17T01:58:33.182Z,26.82
2016-04-17T01:59:33.247Z,26.82
2016-04-17T02:00:33.234Z,26.82
2016-04-17T02:01:33.252Z,26.82
2016-04-17T02:02:33.302Z,26.73
2016-04-17T02:03:33.320Z,27.11
2016-04-17T02:04:33.339Z,26.82
2016-04-17T02:05:32.654Z,26.82
2016-04-17T02:06:33.407Z,26.73
2016-04-17T02:07:33.424Z,26.63
2016-04-17T02:08:33.443Z,26.82
2016-04-17T02:09:33.321Z,26.82
2016-04-17T02:10:33.511Z,26.73
2016-04-17T02:11:33.545Z,26.73
2016-04-17T02:12:33.563Z,26.82
2016-04-17T02:13:33.597Z,26.82
2016-04-17T02:14:33.615Z,26.82
2016-04-17T02:15:33.648Z,26.82
2016-04-17T02:16:33.668Z,26.63
2016-04-17T02:17:33.717Z,26.63
2016-04-17T02:18:33.736Z,26.73
2016-04-17T02:19:33.769Z,26.73
2016-04-17T02:20:33.787Z,26.82
2016-04-17T02:21:33.822Z,26.73
2016-04-17T02:22:33.830Z,26.63
2016-04-17T02:23:33.863Z,26.73
2016-04-17T02:24:33.897Z,26.73
2016-04-17T02:25:33.916Z,26.53
2016-04-17T02:26:33.949Z,26.53
2016-04-17T02:27:33.983Z,26.63
2016-04-17T02:28:34.002Z,26.63
2016-04-17T02:29:34.082Z,26.43
2016-04-17T02:30:34.054Z,26.53
2016-04-17T02:31:34.088Z,26.73
2016-04-17T02:32:34.122Z,26.63
2016-04-17T02:33:34.141Z,26.63
2016-04-17T02:34:34.174Z,26.63
2016-04-17T02:35:34.193Z,26.43
2016-04-17T02:36:34.242Z,26.63
2016-04-17T02:37:34.276Z,26.53
2016-04-17T02:38:34.279Z,26.63
2016-04-17T02:39:34.313Z,26.43
2016-04-17T02:40:34.346Z,26.43
2016-04-17T02:41:34.365Z,26.43
2016-04-17T02:42:34.398Z,26.34
2016-04-17T02:43:34.417Z,26.43
2016-04-17T02:44:34.451Z,26.63
2016-04-17T02:45:34.485Z,26.43
2016-04-17T02:46:34.503Z,26.43
2016-04-17T02:47:34.522Z,26.63
2016-04-17T02:48:34.555Z,26.43
2016-04-17T02:49:34.434Z,26.53
2016-04-17T02:50:34.608Z,26.43
2016-04-17T02:51:34.642Z,26.63
2016-04-17T02:52:34.660Z,26.43
2016-04-17T02:53:34.694Z,26.53
2016-04-17T02:54:34.727Z,26.43
2016-04-17T02:55:34.762Z,26.43
2016-04-17T02:56:34.780Z,26.63
2016-04-17T02:57:34.830Z,26.43
2016-04-17T02:58:34.832Z,26.43
2016-04-17T02:59:34.866Z,26.43
2016-04-17T03:00:34.885Z,26.43
2016-04-17T03:01:34.918Z,26.34
2016-04-17T03:02:34.968Z,26.34
2016-04-17T03:03:35.002Z,26.34
2016-04-17T03:04:35.005Z,26.43
2016-04-17T03:05:35.023Z,26.34
2016-04-17T03:06:35.057Z,26.34
2016-04-17T03:07:35.076Z,26.34
2016-04-17T03:08:35.109Z,26.43
2016-04-17T03:09:35.143Z,26.63
2016-04-17T03:10:35.162Z,26.43
2016-04-17T03:11:35.195Z,26.43
2016-04-17T03:12:35.214Z,26.73
2016-04-17T03:13:35.263Z,26.73
2016-04-17T03:14:35.266Z,26.82
2016-04-17T03:15:35.300Z,26.53
2016-04-17T03:16:35.334Z,27.01
2016-04-17T03:17:35.383Z,27.01
2016-04-17T03:18:35.386Z,26.92
2016-04-17T03:19:35.420Z,26.43
2016-04-17T03:20:35.438Z,26.82
2016-04-17T03:21:35.472Z,26.43
2016-04-17T03:22:35.491Z,26.53
2016-04-17T03:23:35.509Z,26.73
2016-04-17T03:24:35.543Z,26.34
2016-04-17T03:25:35.577Z,26.43
2016-04-17T03:26:35.611Z,26.34
2016-04-17T03:27:35.629Z,26.63
2016-04-17T03:28:35.647Z,26.73
2016-04-17T03:29:35.696Z,25.95
2016-04-17T03:30:35.716Z,26.25
2016-04-17T03:31:35.765Z,26.25
2016-04-17T03:32:35.768Z,26.25
2016-04-17T03:33:35.785Z,26.34
2016-04-17T03:34:35.819Z,26.34
2016-04-17T03:35:35.853Z,26.25
2016-04-17T03:36:35.872Z,26.15
2016-04-17T03:37:35.906Z,26.15
2016-04-17T03:38:35.940Z,26.34
2016-04-17T03:39:35.989Z,26.34
2016-04-17T03:40:35.992Z,26.25
2016-04-17T03:41:36.026Z,26.25
2016-04-17T03:42:36.045Z,26.25
2016-04-17T03:43:36.062Z,26.25
2016-04-17T03:44:36.096Z,26.25
2016-04-17T03:45:36.131Z,26.53
2016-04-17T03:46:36.164Z,26.25
2016-04-17T03:47:36.183Z,26.34
2016-04-17T03:48:36.217Z,26.34
2016-04-17T03:49:36.235Z,26.34
2016-04-17T03:50:36.270Z,26.34
2016-04-17T03:51:36.303Z,26.34
2016-04-17T03:52:36.321Z,26.25
2016-04-17T03:53:36.356Z,26.34
2016-04-17T03:54:36.373Z,26.43
2016-04-17T03:55:36.408Z,26.34
2016-04-17T03:56:36.425Z,26.34
2016-04-17T03:57:36.460Z,26.34
2016-04-17T03:58:36.494Z,26.34
2016-04-17T03:59:36.511Z,26.34
2016-04-17T04:00:36.530Z,26.53
2016-04-17T04:01:36.580Z,26.25
2016-04-17T04:02:36.599Z,26.25
2016-04-17T04:03:36.632Z,26.34
2016-04-17T04:04:36.650Z,26.43
2016-04-17T04:05:36.747Z,26.43
2016-04-17T04:06:36.703Z,26.53
2016-04-17T04:07:36.737Z,26.53
2016-04-17T04:08:36.786Z,26.53
2016-04-17T04:09:36.788Z,26.25
2016-04-17T04:10:36.823Z,26.43
2016-04-17T04:11:36.856Z,26.25
2016-04-17T04:12:36.860Z,26.34
2016-04-17T04:13:36.909Z,26.43
2016-04-17T04:14:36.927Z,26.34
2016-04-17T04:15:36.945Z,26.63
2016-04-17T04:16:36.980Z,26.53
2016-04-17T04:17:37.014Z,26.53
2016-04-17T04:18:37.032Z,26.15
2016-04-17T04:19:37.050Z,26.53
2016-04-17T04:20:37.084Z,26.25
2016-04-17T04:21:37.164Z,26.25
2016-04-17T04:22:37.152Z,26.15
2016-04-17T04:23:37.170Z,26.15
2016-04-17T04:24:37.236Z,26.34
2016-04-17T04:25:37.222Z,26.34
2016-04-17T04:26:37.241Z,26.25
2016-04-17T04:27:37.290Z,26.25
2016-04-17T04:28:37.308Z,26.43
2016-04-17T04:29:37.358Z,26.05
2016-04-17T04:30:37.361Z,26.15
2016-04-17T04:31:37.395Z,26.25
2016-04-17T04:32:37.429Z,26.25
2016-04-17T04:33:37.447Z,26.05
2016-04-17T04:34:37.466Z,26.34
2016-04-17T04:35:37.516Z,26.15
2016-04-17T04:36:37.533Z,26.34
2016-04-17T04:37:37.568Z,26.15
2016-04-17T04:38:37.601Z,26.15
2016-04-17T04:39:37.651Z,26.15
2016-04-17T04:40:37.654Z,26.34
2016-04-17T04:41:37.671Z,26.15
2016-04-17T04:42:37.690Z,26.15
2016-04-17T04:43:37.740Z,26.15
2016-04-17T04:44:37.757Z,26.15
2016-04-17T04:45:37.776Z,26.15
2016-04-17T04:46:37.809Z,26.15
2016-04-17T04:47:37.845Z,26.05
2016-04-17T04:48:37.847Z,26.15
2016-04-17T04:49:37.881Z,26.15
2016-04-17T04:50:37.930Z,26.43
2016-04-17T04:51:37.933Z,26.15
2016-04-17T04:52:37.967Z,25.95
2016-04-17T04:53:38.032Z,26.15
2016-04-17T04:54:38.019Z,26.15
2016-04-17T04:55:38.053Z,26.25
2016-04-17T04:56:38.086Z,26.15
2016-04-17T04:57:38.105Z,26.05
2016-04-17T04:58:38.124Z,26.15
2016-04-17T04:59:38.172Z,26.05
2016-04-17T05:00:38.192Z,26.05
2016-04-17T05:01:38.225Z,26.15
2016-04-17T05:02:38.244Z,26.25
2016-04-17T05:03:38.277Z,26.15
2016-04-17T05:04:38.296Z,26.15
2016-04-17T05:05:38.330Z,26.25
2016-04-17T05:06:38.364Z,26.05
2016-04-17T05:07:38.382Z,25.95
2016-04-17T05:08:38.416Z,25.95
2016-04-17T05:09:38.434Z,26.05
2016-04-17T05:10:38.485Z,26.15
2016-04-17T05:11:38.502Z,25.85
2016-04-17T05:12:38.521Z,26.05
2016-04-17T05:13:38.539Z,25.95
2016-04-17T05:14:38.604Z,26.05
2016-04-17T05:15:38.590Z,26.05
2016-04-17T05:16:38.673Z,26.34
2016-04-17T05:17:38.675Z,25.95
2016-04-17T05:18:38.709Z,26.43
2016-04-17T05:19:38.711Z,25.85
2016-04-17T05:20:38.745Z,25.85
2016-04-17T05:21:38.763Z,25.85
2016-04-17T05:22:38.814Z,25.95
2016-04-17T05:23:38.831Z,25.76
2016-04-17T05:24:38.850Z,25.95
2016-04-17T05:25:38.774Z,26.34
2016-04-17T05:26:38.902Z,26.34
2016-04-17T05:27:38.952Z,26.34
2016-04-17T05:28:39.001Z,25.95
2016-04-17T05:29:38.972Z,25.76
2016-04-17T05:30:39.022Z,25.95
2016-04-17T05:31:39.041Z,25.95
2016-04-17T05:32:39.074Z,26.05
2016-04-17T05:33:39.093Z,26.15
2016-04-17T05:34:39.127Z,25.76
2016-04-17T05:35:39.145Z,25.95
2016-04-17T05:36:39.194Z,26.15
2016-04-17T05:37:39.213Z,25.76
2016-04-17T05:38:39.262Z,25.76
2016-04-17T05:39:39.265Z,25.76
2016-04-17T05:40:39.330Z,25.66
2016-04-17T05:41:39.318Z,25.66
2016-04-17T05:42:39.351Z,25.95
2016-04-17T05:43:39.370Z,25.85
2016-04-17T05:44:39.404Z,25.85
2016-04-17T05:45:39.438Z,25.66
2016-04-17T05:46:39.456Z,25.76
2016-04-17T05:47:39.490Z,25.76
2016-04-17T05:48:39.509Z,25.66
2016-04-17T05:49:39.542Z,25.85
2016-04-17T05:50:39.560Z,25.76
2016-04-17T05:51:39.626Z,25.76
2016-04-17T05:52:39.629Z,25.76
2016-04-17T05:53:39.662Z,25.76
2016-04-17T05:54:39.681Z,25.76
2016-04-17T05:55:39.730Z,25.76
2016-04-17T05:56:39.748Z,25.76
2016-04-17T05:57:39.766Z,25.76
2016-04-17T05:58:39.786Z,25.56
2016-04-17T05:59:39.819Z,25.76
2016-04-17T06:00:39.837Z,25.76
2016-04-17T06:01:39.871Z,25.56
2016-04-17T06:02:39.906Z,25.85
2016-04-17T06:03:39.961Z,25.76
2016-04-17T06:04:40.018Z,25.76
2016-04-17T06:05:40.092Z,26.05
2016-04-17T06:06:40.182Z,25.76
2016-04-17T06:07:40.271Z,25.85
2016-04-17T06:08:40.275Z,25.85
2016-04-17T06:09:40.307Z,25.85
2016-04-17T06:10:40.434Z,25.56
2016-04-17T06:11:40.404Z,26.05
2016-04-17T06:12:40.452Z,26.05
2016-04-17T06:13:40.476Z,25.66
2016-04-17T06:14:40.516Z,25.47
2016-04-17T06:15:40.539Z,25.66
2016-04-17T06:16:40.579Z,25.76
2016-04-17T06:17:40.649Z,25.85
2016-04-17T06:18:40.638Z,25.85
2016-04-17T06:19:40.674Z,25.85
2016-04-17T06:20:40.693Z,25.85
2016-04-17T06:21:40.731Z,25.56
2016-04-17T06:22:40.750Z,25.37
2016-04-17T06:23:40.785Z,25.37
2016-04-17T06:24:40.820Z,25.37
2016-04-17T06:25:40.870Z,25.37
2016-04-17T06:26:40.874Z,25.47
2016-04-17T06:27:40.893Z,25.85
2016-04-17T06:28:40.927Z,25.47
2016-04-17T06:29:40.945Z,25.56
2016-04-17T06:30:41.025Z,25.47
2016-04-17T06:31:41.013Z,25.66
2016-04-17T06:32:41.063Z,25.56
2016-04-17T06:33:41.065Z,25.66
2016-04-17T06:34:41.099Z,25.66
2016-04-17T06:35:41.117Z,25.56
2016-04-17T06:36:41.151Z,25.85
2016-04-17T06:37:41.169Z,25.56
2016-04-17T06:38:40.469Z,25.76
2016-04-17T06:39:41.221Z,25.95
2016-04-17T06:40:41.413Z,25.85
2016-04-17T06:41:41.274Z,25.66
2016-04-17T06:42:41.307Z,25.66
2016-04-17T06:43:41.343Z,25.56
2016-04-17T06:44:41.360Z,25.66
2016-04-17T06:45:41.394Z,25.37
2016-04-17T06:46:41.413Z,25.37
2016-04-17T06:47:41.446Z,25.37
2016-04-17T06:48:41.481Z,25.27
2016-04-17T06:49:41.515Z,25.76
2016-04-17T06:50:41.532Z,25.37
2016-04-17T06:51:41.567Z,25.56
2016-04-17T06:52:41.585Z,25.37
2016-04-17T06:53:41.603Z,25.37
2016-04-17T06:54:41.637Z,25.37
2016-04-17T06:55:41.717Z,25.27
2016-04-17T06:56:41.689Z,25.27
2016-04-17T06:57:41.740Z,24.88
2016-04-17T06:58:41.757Z,24.79
2016-04-17T06:59:41.776Z,25.08
2016-04-17T07:00:41.794Z,24.98
2016-04-17T07:01:41.828Z,25.18
2016-04-17T07:02:41.862Z,25.08
2016-04-17T07:03:41.880Z,24.98
2016-04-17T07:04:41.914Z,24.98
2016-04-17T07:05:41.980Z,24.98
2016-04-17T07:06:41.966Z,24.98
2016-04-17T07:07:42.016Z,25.08
2016-04-17T07:08:42.035Z,24.88
2016-04-17T07:09:42.052Z,24.79
2016-04-17T07:10:42.102Z,25.08
2016-04-17T07:11:42.120Z,24.98
2016-04-17T07:12:42.155Z,25.08
2016-04-17T07:13:42.157Z,25.18
2016-04-17T07:14:42.190Z,24.98
2016-04-17T07:15:42.224Z,25.08
2016-04-17T07:16:42.243Z,25.27
2016-04-17T07:17:42.276Z,25.08
2016-04-17T07:18:42.296Z,25.08
2016-04-17T07:19:42.376Z,25.18
2016-04-17T07:20:42.363Z,25.27
2016-04-17T07:21:42.381Z,24.98
2016-04-17T07:22:42.432Z,25.18
2016-04-17T07:23:42.434Z,24.98
2016-04-17T07:24:42.468Z,25.08
2016-04-17T07:25:42.501Z,24.79
2016-04-17T07:26:42.520Z,24.98
2016-04-17T07:27:42.554Z,24.88
2016-04-17T07:28:42.573Z,24.79
2016-04-17T07:29:42.606Z,24.79
2016-04-17T07:30:42.640Z,24.69
2016-04-17T07:31:42.658Z,24.88
2016-04-17T07:32:42.677Z,24.98
2016-04-17T07:33:42.711Z,24.79
2016-04-17T07:34:42.730Z,24.88
2016-04-17T07:35:42.763Z,24.88
2016-04-17T07:36:42.797Z,24.88
2016-04-17T07:37:42.816Z,24.88
2016-04-17T07:38:42.850Z,24.79
2016-04-17T07:39:42.883Z,25.08
2016-04-17T07:40:42.902Z,25.08
2016-04-17T07:41:42.951Z,24.69
2016-04-17T07:42:42.954Z,24.88
2016-04-17T07:43:43.300Z,24.4
2016-04-17T07:44:43.288Z,24.4
2016-04-17T07:45:43.321Z,24.4
2016-04-17T07:46:43.308Z,24.4
2016-04-17T07:47:43.373Z,24.5
2016-04-17T07:48:43.282Z,24.69
2016-04-17T07:49:43.316Z,24.69
2016-04-17T07:50:43.287Z,24.5
2016-04-17T07:51:43.368Z,24.79
2016-04-17T07:52:43.653Z,24.6
2016-04-17T07:53:43.343Z,24.6
2016-04-17T07:54:43.362Z,24.5
2016-04-17T07:55:43.332Z,24.3
2016-04-17T07:56:43.351Z,24.5
2016-04-17T07:57:43.384Z,24.11
2016-04-17T07:58:43.403Z,24.4
2016-04-17T07:59:43.421Z,24.5
2016-04-17T08:00:43.471Z,23.92
2016-04-17T08:01:43.489Z,24.21
2016-04-17T08:02:43.508Z,24.3
2016-04-17T08:03:43.541Z,24.3
2016-04-17T08:04:43.560Z,24.21
2016-04-17T08:05:43.594Z,24.3
2016-04-17T08:06:43.627Z,24.02
2016-04-17T08:07:43.661Z,24.6
2016-04-17T08:08:43.727Z,24.5
2016-04-17T08:09:43.699Z,24.4
2016-04-17T08:10:43.733Z,24.5
2016-04-17T08:11:43.766Z,24.3
2016-04-17T08:12:43.784Z,24.11
2016-04-17T08:13:43.834Z,24.21
2016-04-17T08:14:43.852Z,24.5
2016-04-17T08:15:43.871Z,24.11
2016-04-17T08:16:43.905Z,24.11
2016-04-17T08:17:43.938Z,24.11
2016-04-17T08:18:43.956Z,24.3
2016-04-17T08:19:43.975Z,24.02
2016-04-17T08:20:44.009Z,24.3
2016-04-17T08:21:44.026Z,24.21
2016-04-17T08:22:44.062Z,23.82
2016-04-17T08:23:44.079Z,23.82
2016-04-17T08:24:44.129Z,23.92
2016-04-17T08:25:44.147Z,24.02
2016-04-17T08:26:44.181Z,24.02
2016-04-17T08:27:44.215Z,23.92
2016-04-17T08:28:44.234Z,23.92
2016-04-17T08:29:44.253Z,23.72
2016-04-17T08:30:44.301Z,23.72
2016-04-17T08:31:44.336Z,23.72
2016-04-17T08:32:44.338Z,23.72
2016-04-17T08:33:44.356Z,23.82
2016-04-17T08:34:44.391Z,23.92
2016-04-17T08:35:44.424Z,24.11
2016-04-17T08:36:44.442Z,24.11
2016-04-17T08:37:44.477Z,23.92
2016-04-17T08:38:44.510Z,23.92
2016-04-17T08:39:44.544Z,23.92
2016-04-17T08:40:44.563Z,23.92
2016-04-17T08:41:44.597Z,24.21
2016-04-17T08:42:44.647Z,23.92
2016-04-17T08:43:44.666Z,24.02
2016-04-17T08:44:44.699Z,24.11
2016-04-17T08:45:44.701Z,24.02
2016-04-17T08:46:44.719Z,24.11
2016-04-17T08:47:44.738Z,23.92
2016-04-17T08:48:44.772Z,23.92
2016-04-17T08:49:44.806Z,23.82
2016-04-17T08:50:44.824Z,23.82
2016-04-17T08:51:44.858Z,24.21
2016-04-17T08:52:44.893Z,23.82
2016-04-17T08:53:44.910Z,23.63
2016-04-17T08:54:44.975Z,23.72
2016-04-17T08:55:44.962Z,23.63
2016-04-17T08:56:44.996Z,23.63
2016-04-17T08:57:45.015Z,23.82
2016-04-17T08:58:45.049Z,23.82
2016-04-17T08:59:45.083Z,23.72
2016-04-17T09:00:45.101Z,23.82
2016-04-17T09:01:45.135Z,23.82
2016-04-17T09:02:45.169Z,23.82
2016-04-17T09:03:45.203Z,23.72
2016-04-17T09:04:45.221Z,23.72
2016-04-17T09:05:45.239Z,23.82
2016-04-17T09:06:45.273Z,23.72
2016-04-17T09:07:45.292Z,23.63
2016-04-17T09:08:45.341Z,23.82
2016-04-17T09:09:45.344Z,23.43
2016-04-17T09:10:45.393Z,23.63
2016-04-17T09:11:45.412Z,23.53
2016-04-17T09:12:45.446Z,23.63
2016-04-17T09:13:45.480Z,23.43
2016-04-17T09:14:45.498Z,23.53
2016-04-17T09:15:45.517Z,23.53
2016-04-17T09:16:45.535Z,23.43
2016-04-17T09:17:45.585Z,23.53
2016-04-17T09:18:45.634Z,23.53
2016-04-17T09:19:45.637Z,23.43
2016-04-17T09:20:45.655Z,23.53
2016-04-17T09:21:45.720Z,23.72
2016-04-17T09:22:45.723Z,23.53
2016-04-17T09:23:45.740Z,23.72
2016-04-17T09:24:45.776Z,23.72
2016-04-17T09:25:45.809Z,23.43
2016-04-17T09:26:45.827Z,23.14
2016-04-17T09:27:45.846Z,22.37
2016-04-17T09:28:46.083Z,22.27
2016-04-17T09:29:46.085Z,21.88
2016-04-17T09:30:46.213Z,21.98
2016-04-17T09:31:46.262Z,21.98
2016-04-17T09:32:46.203Z,22.08
2016-04-17T09:33:46.221Z,21.59
2016-04-17T09:34:46.162Z,21.79
2016-04-17T09:35:46.226Z,21.59
2016-04-17T09:36:46.245Z,21.59
2016-04-17T09:37:46.217Z,21.98
2016-04-17T09:38:46.267Z,21.98
2016-04-17T09:39:46.269Z,22.17
2016-04-17T09:40:46.303Z,22.08
2016-04-17T09:41:46.290Z,21.98
2016-04-17T09:42:46.277Z,21.98
2016-04-17T09:43:46.279Z,22.27
2016-04-17T09:44:46.297Z,22.56
2016-04-17T09:45:46.332Z,22.95
2016-04-17T09:46:46.366Z,22.95
2016-04-17T09:47:46.399Z,23.24
2016-04-17T09:48:46.419Z,23.05
2016-04-17T09:49:46.452Z,23.14
2016-04-17T09:50:46.471Z,23.05
2016-04-17T09:51:46.505Z,22.95
2016-04-17T09:52:46.569Z,22.85
2016-04-17T09:53:46.557Z,22.95
2016-04-17T09:54:46.591Z,23.43
2016-04-17T09:55:46.609Z,22.85
2016-04-17T09:56:46.643Z,23.14
2016-04-17T09:57:46.677Z,23.53
2016-04-17T09:58:46.695Z,23.05
2016-04-17T09:59:46.728Z,22.95
2016-04-17T10:00:46.747Z,22.95
2016-04-17T10:01:46.781Z,23.05
2016-04-17T10:02:46.799Z,22.85
2016-04-17T10:03:46.849Z,23.43
2016-04-17T10:04:46.868Z,23.05
2016-04-17T10:05:46.886Z,23.05
2016-04-17T10:06:46.935Z,23.14
2016-04-17T10:07:46.970Z,23.24
2016-04-17T10:08:46.972Z,23.05
2016-04-17T10:09:47.005Z,23.05
2016-04-17T10:10:47.025Z,23.05
2016-04-17T10:11:47.136Z,23.14
2016-04-17T10:12:47.076Z,23.24
2016-04-17T10:13:47.110Z,23.14
2016-04-17T10:14:47.128Z,23.14
2016-04-17T10:15:47.162Z,23.14
2016-04-17T10:16:47.197Z,23.14
2016-04-17T10:17:47.261Z,23.14
2016-04-17T10:18:47.249Z,23.14
2016-04-17T10:19:47.267Z,23.14
2016-04-17T10:20:47.301Z,23.14
2016-04-17T10:21:47.366Z,23.14
2016-04-17T10:22:47.352Z,23.43
2016-04-17T10:23:47.387Z,23.14
2016-04-17T10:24:47.405Z,23.33
2016-04-17T10:25:47.423Z,23.33
2016-04-17T10:26:47.629Z,23.14
2016-04-17T10:27:47.491Z,23.14
2016-04-17T10:28:47.541Z,23.14
2016-04-17T10:29:47.560Z,23.43
2016-04-17T10:30:47.578Z,23.05
2016-04-17T10:31:47.627Z,23.14
2016-04-17T10:32:47.629Z,23.24
2016-04-17T10:33:47.648Z,22.85
2016-04-17T10:34:47.682Z,23.05
2016-04-17T10:35:47.700Z,22.95
2016-04-17T10:36:47.750Z,22.85
2016-04-17T10:37:47.753Z,23.05
2016-04-17T10:38:47.787Z,22.75
2016-04-17T10:39:47.821Z,22.66
2016-04-17T10:40:47.855Z,22.75
2016-04-17T10:41:48.061Z,22.75
2016-04-17T10:42:47.891Z,22.85
2016-04-17T10:43:47.925Z,22.66
2016-04-17T10:44:47.959Z,22.66
2016-04-17T10:45:47.977Z,22.75
2016-04-17T10:46:48.012Z,22.95
2016-04-17T10:47:48.044Z,22.85
2016-04-17T10:48:48.064Z,22.85
2016-04-17T10:49:48.098Z,22.66
2016-04-17T10:50:48.116Z,22.85
2016-04-17T10:51:48.150Z,22.85
2016-04-17T10:52:48.169Z,23.05
2016-04-17T10:53:48.202Z,22.95
2016-04-17T10:54:48.236Z,22.85
2016-04-17T10:55:48.270Z,23.05
2016-04-17T10:56:48.304Z,23.05
2016-04-17T10:57:48.321Z,22.95
2016-04-17T10:58:48.340Z,23.05
2016-04-17T10:59:48.375Z,22.85
2016-04-17T11:00:48.409Z,22.85
2016-04-17T11:01:48.427Z,22.85
2016-04-17T11:02:48.460Z,22.66
2016-04-17T11:03:48.479Z,22.66
2016-04-17T11:04:48.513Z,22.75
2016-04-17T11:05:48.531Z,22.56
2016-04-17T11:06:48.565Z,22.56
2016-04-17T11:07:48.614Z,22.47
2016-04-17T11:08:47.883Z,22.37
2016-04-17T11:09:48.636Z,22.37
2016-04-17T11:10:48.700Z,22.27
2016-04-17T11:11:48.688Z,22.56
2016-04-17T11:12:48.722Z,22.17
2016-04-17T11:13:48.740Z,22.08
2016-04-17T11:14:48.790Z,22.27
2016-04-17T11:15:48.808Z,22.37
2016-04-17T11:16:48.842Z,22.27
2016-04-17T11:17:48.861Z,22.27
2016-04-17T11:18:48.894Z,22.47
2016-04-17T11:19:48.960Z,22.17
2016-04-17T11:20:48.947Z,22.47
2016-04-17T11:21:48.981Z,22.47
2016-04-17T11:22:48.999Z,22.27
2016-04-17T11:23:49.048Z,22.17
2016-04-17T11:24:49.051Z,22.37
2016-04-17T11:25:49.085Z,22.47
2016-04-17T11:26:49.119Z,22.37
2016-04-17T11:27:49.137Z,22.37
2016-04-17T11:28:49.155Z,22.56
2016-04-17T11:29:49.221Z,22.47
2016-04-17T11:30:49.285Z,22.47
2016-04-17T11:31:49.242Z,22.56
2016-04-17T11:32:49.276Z,22.56
2016-04-17T11:33:49.293Z,22.56
2016-04-17T11:34:49.329Z,22.56
2016-04-17T11:35:49.346Z,22.37
2016-04-17T11:36:49.380Z,22.27
2016-04-17T11:37:49.414Z,22.27
2016-04-17T11:38:49.432Z,22.27
2016-04-17T11:39:49.467Z,21.88
2016-04-17T11:40:49.500Z,21.98
2016-04-17T11:41:49.519Z,21.88
2016-04-17T11:42:49.553Z,21.88
2016-04-17T11:43:49.571Z,21.88
2016-04-17T11:44:49.637Z,21.88
2016-04-17T11:45:49.670Z,21.88
2016-04-17T11:46:49.658Z,22.08
2016-04-17T11:47:49.707Z,22.08
2016-04-17T11:48:49.725Z,21.88
2016-04-17T11:49:49.759Z,21.98
2016-04-17T11:50:49.777Z,21.88
2016-04-17T11:51:49.796Z,22.08
2016-04-17T11:52:49.829Z,22.17
2016-04-17T11:53:49.847Z,22.17
2016-04-17T11:54:49.944Z,22.27
2016-04-17T11:55:49.916Z,22.17
2016-04-17T11:56:49.949Z,22.08
2016-04-17T11:57:49.952Z,22.17
2016-04-17T11:58:49.986Z,21.88
2016-04-17T11:59:50.021Z,22.17
2016-04-17T12:00:50.055Z,21.98
2016-04-17T12:01:50.073Z,21.79
2016-04-17T12:02:50.107Z,21.59
2016-04-17T12:03:50.125Z,21.5
2016-04-17T12:04:50.143Z,21.88
2016-04-17T12:05:50.177Z,21.69
2016-04-17T12:06:50.212Z,21.79
2016-04-17T12:07:50.089Z,21.59
2016-04-17T12:08:50.295Z,21.69
2016-04-17T12:09:50.297Z,21.69
2016-04-17T12:10:50.315Z,21.79
2016-04-17T12:11:50.521Z,21.88
2016-04-17T12:12:50.368Z,21.69
2016-04-17T12:13:50.401Z,21.69
2016-04-17T12:14:50.436Z,21.88
2016-04-17T12:15:50.469Z,21.98
2016-04-17T12:16:50.488Z,21.79
2016-04-17T12:17:50.522Z,21.59
2016-04-17T12:18:50.602Z,21.79
2016-04-17T12:19:50.558Z,21.79
2016-04-17T12:20:50.608Z,21.88
2016-04-17T12:21:50.611Z,21.59
2016-04-17T12:22:50.644Z,21.79
2016-04-17T12:23:50.678Z,21.88
2016-04-17T12:24:50.712Z,21.88
2016-04-17T12:25:50.731Z,21.79
2016-04-17T12:26:50.953Z,21.69
2016-04-17T12:27:50.799Z,21.88
2016-04-17T12:28:50.817Z,21.88
2016-04-17T12:29:50.851Z,21.88
2016-04-17T12:30:50.869Z,21.69
2016-04-17T12:31:50.919Z,21.88
2016-04-17T12:32:50.969Z,21.59
2016-04-17T12:33:50.955Z,21.3
2016-04-17T12:34:50.974Z,21.59
2016-04-17T12:35:51.008Z,21.4
2016-04-17T12:36:51.026Z,21.5
2016-04-17T12:37:51.076Z,21.4
2016-04-17T12:38:51.094Z,21.4
2016-04-17T12:39:51.112Z,21.4
2016-04-17T12:40:51.146Z,21.59
2016-04-17T12:41:51.165Z,21.59
2016-04-17T12:42:51.261Z,21.59
2016-04-17T12:43:51.263Z,21.4
2016-04-17T12:44:51.250Z,21.4
2016-04-17T12:45:51.284Z,21.11
2016-04-17T12:46:51.303Z,21.5
2016-04-17T12:47:51.337Z,21.11
2016-04-17T12:48:51.386Z,21.11
2016-04-17T12:49:51.389Z,21.2
2016-04-17T12:50:51.422Z,21.2
2016-04-17T12:51:51.441Z,21.2
2016-04-17T12:52:51.491Z,21.01
2016-04-17T12:53:51.493Z,21.11